Time;durP1;ratioP1;P1;durP2;ratioP2;P2;SDS_P1;SDS_P2;PMS_P1;PMS_P2;Temp;Humidity;BMP_temperature;BMP_pressure;BME280_temperature;BME280_humidity;BME280_pressure;Samples;Min_cycle;Max_cycle;Signal;HPM_P1;HPM_P2
2023/05/03 00:02:15;;;;;;;8.53;6.20;;;;;;;9.23;70.04;99813.44;5095289;28;40016;-78
2023/05/03 00:04:45;;;;;;;8.67;5.57;;;;;;;9.21;71.05;99818.78;5095239;28;41703;-77
2023/05/03 00:07:14;;;;;;;8.80;6.80;;;;;;;9.18;71.83;99812.78;5113260;28;44203;-78
2023/05/03 00:09:42;;;;;;;7.23;5.57;;;;;;;9.14;71.44;99814.69;5077841;28;41418;-78
2023/05/03 00:12:09;;;;;;;7.93;5.53;;;;;;;9.15;71.07;99826.97;5078034;28;38837;-78
2023/05/03 00:14:37;;;;;;;5.63;5.00;;;;;;;9.13;70.50;99825.34;5095090;28;41454;-78
2023/05/03 00:17:04;;;;;;;8.33;5.60;;;;;;;8.91;71.13;99793.63;5077636;28;42931;-79
2023/05/03 00:19:34;;;;;;;7.83;5.47;;;;;;;8.89;71.04;99791.06;5094708;28;41697;-78
2023/05/03 00:22:02;;;;;;;7.93;6.37;;;;;;;9.04;71.36;99826.53;5094341;27;38833;-78
2023/05/03 00:24:31;;;;;;;8.73;5.60;;;;;;;9.02;71.29;99824.91;5094391;28;40716;-77
2023/05/03 00:26:59;;;;;;;8.87;5.83;;;;;;;8.98;71.71;99819.75;5112596;28;42827;-78
2023/05/03 00:29:27;;;;;;;10.97;6.53;;;;;;;8.74;71.49;99786.41;5094655;28;42009;-80
2023/05/03 00:31:55;;;;;;;8.73;5.37;;;;;;;8.93;71.47;99824.34;5094498;28;39010;-76
2023/05/03 00:34:22;;;;;;;8.23;5.30;;;;;;;8.93;71.22;99824.34;5094248;28;40129;-79
2023/05/03 00:36:50;;;;;;;5.90;4.57;;;;;;;8.86;70.85;99809.69;5094657;28;43011;-78
2023/05/03 00:39:18;;;;;;;7.63;5.10;;;;;;;8.80;71.06;99801.97;5094535;28;43248;-78
2023/05/03 00:41:47;;;;;;;10.40;5.53;;;;;;;8.90;71.42;99813.91;5077453;28;38690;-78
2023/05/03 00:44:15;;;;;;;6.53;5.43;;;;;;;8.94;70.85;99814.63;5077616;28;40601;-77
2023/05/03 00:46:43;;;;;;;11.77;6.13;;;;;;;8.93;71.32;99808.50;5094203;28;42791;-80
2023/05/03 00:49:10;;;;;;;8.87;5.50;;;;;;;8.81;71.30;99787.84;5077124;28;41630;-78
2023/05/03 00:51:38;;;;;;;8.27;5.57;;;;;;;8.91;71.44;99802.41;5093986;28;40977;-78
2023/05/03 00:54:06;;;;;;;7.17;5.67;;;;;;;8.90;70.99;99807.78;5094552;28;42663;-78
2023/05/03 00:56:34;;;;;;;6.50;4.97;;;;;;;8.88;71.30;99810.47;5094245;28;42679;-77
2023/05/03 00:59:04;;;;;;;7.00;5.37;;;;;;;8.88;70.99;99805.19;5094379;28;43207;-78
2023/05/03 01:01:33;;;;;;;6.10;5.27;;;;;;;8.84;71.67;99795.66;5094054;28;39927;-79
2023/05/03 01:04:02;;;;;;;9.63;5.93;;;;;;;8.84;72.08;99793.03;5077295;28;42098;-79
2023/05/03 01:06:37;;;;;;;7.40;5.67;;;;;;;8.84;71.67;99797.44;5077109;28;41485;-78
2023/05/03 01:09:12;;;;;;;7.07;5.70;;;;;;;8.76;71.33;99797.78;5091138;28;43179;-80
2023/05/03 01:11:48;;;;;;;9.47;5.73;;;;;;;8.79;71.15;99797.63;5076914;28;39070;-77
2023/05/03 01:14:28;;;;;;;6.80;5.43;;;;;;;8.85;71.02;99810.59;5093635;28;41116;-80
2023/05/03 01:17:01;;;;;;;8.97;5.33;;;;;;;8.88;70.76;99802.56;5076855;28;43215;-78
2023/05/03 01:19:34;;;;;;;10.27;5.93;;;;;;;8.88;70.79;99805.19;5090842;28;43057;-78
2023/05/03 01:22:11;;;;;;;8.20;5.27;;;;;;;8.54;70.61;99741.44;5076902;28;39500;-77
2023/05/03 01:24:41;;;;;;;8.20;5.47;;;;;;;8.85;70.20;99794.75;5090888;28;42720;-79
2023/05/03 01:27:11;;;;;;;8.03;5.43;;;;;;;8.94;70.33;99807.56;5093306;28;42703;-79
2023/05/03 01:29:39;;;;;;;9.37;5.77;;;;;;;9.06;69.60;99808.00;5076691;28;41465;-79
2023/05/03 01:32:13;;;;;;;5.57;4.60;;;;;;;9.17;69.41;99811.03;5076692;28;38837;-78
2023/05/03 01:34:47;;;;;;;6.17;5.03;;;;;;;9.23;69.01;99811.66;5075841;28;40662;-79
2023/05/03 01:37:15;;;;;;;7.17;5.77;;;;;;;9.30;68.58;99806.97;5093496;28;43251;-80
2023/05/03 01:39:49;;;;;;;7.80;4.93;;;;;;;9.28;68.55;99798.25;5076366;28;41272;-79
2023/05/03 01:42:19;;;;;;;9.23;5.60;;;;;;;9.43;67.92;99816.09;5076749;28;39817;-80
2023/05/03 01:44:49;;;;;;;6.13;4.43;;;;;;;9.50;67.62;99822.88;5090599;28;42938;-78
2023/05/03 01:47:17;;;;;;;7.03;5.40;;;;;;;9.51;67.19;99831.66;5076229;28;41897;-79
2023/05/03 01:49:45;;;;;;;6.30;5.10;;;;;;;9.55;67.33;99828.81;5076785;28;41094;-78
2023/05/03 01:52:12;;;;;;;8.93;5.60;;;;;;;9.51;66.85;99806.09;5111779;28;40909;-78
2023/05/03 01:54:40;;;;;;;7.40;4.93;;;;;;;9.59;66.87;99814.53;5076569;28;41989;-80
2023/05/03 01:57:08;;;;;;;5.77;4.97;;;;;;;9.64;66.74;99806.41;5093243;28;42435;-78
2023/05/03 01:59:38;;;;;;;8.73;5.63;;;;;;;9.55;66.50;99791.78;5093362;28;42232;-78
2023/05/03 02:02:06;;;;;;;5.67;5.00;;;;;;;9.70;66.24;99804.34;5075959;28;38626;-78
2023/05/03 02:04:34;;;;;;;8.97;5.77;;;;;;;9.72;66.14;99821.00;5076028;28;40705;-78
2023/05/03 02:07:02;;;;;;;6.77;4.80;;;;;;;9.75;65.91;99814.72;5075963;28;43270;-77
2023/05/03 02:09:30;;;;;;;5.50;4.63;;;;;;;9.69;65.62;99794.69;5093244;28;42363;-80
2023/05/03 02:11:57;;;;;;;8.27;5.30;;;;;;;9.72;65.55;99802.50;5093018;28;40657;-78
2023/05/03 02:14:25;;;;;;;6.67;5.03;;;;;;;9.78;65.33;99819.88;5075799;28;40908;-79
2023/05/03 02:16:55;;;;;;;9.37;5.40;;;;;;;9.80;65.66;99817.16;5110948;28;43799;-79
2023/05/03 02:19:22;;;;;;;6.23;4.67;;;;;;;9.80;65.27;99822.44;5076150;28;41022;-77
2023/05/03 02:21:50;;;;;;;9.30;5.00;;;;;;;9.73;65.55;99809.50;5093089;28;40091;-79
2023/05/03 02:24:18;;;;;;;7.00;5.63;;;;;;;9.74;65.30;99818.31;5075978;28;40408;-78
2023/05/03 02:26:46;;;;;;;9.37;5.93;;;;;;;9.71;65.02;99819.28;5075717;28;42108;-77
2023/05/03 02:29:13;;;;;;;8.10;5.13;;;;;;;9.72;65.02;99820.16;5093010;28;42299;-79
2023/05/03 02:31:41;;;;;;;8.07;5.20;;;;;;;9.68;65.26;99816.78;5075605;28;40666;-78
2023/05/03 02:34:11;;;;;;;6.70;4.37;;;;;;;9.77;65.18;99827.91;5076135;28;41059;-77
2023/05/03 02:36:39;;;;;;;6.53;4.83;;;;;;;9.78;64.94;99829.59;5092738;28;42762;-79
2023/05/03 02:39:07;;;;;;;9.13;4.43;;;;;;;9.75;64.72;99824.47;5075988;28;41371;-78
2023/05/03 02:41:34;;;;;;;8.47;5.00;;;;;;;9.85;64.83;99831.06;5075689;28;39069;-79
2023/05/03 02:44:03;;;;;;;7.27;4.77;;;;;;;9.89;64.75;99827.34;5076270;28;40702;-78
2023/05/03 02:46:31;;;;;;;7.27;4.70;;;;;;;9.88;64.63;99825.63;5077193;28;41823;-77
2023/05/03 02:48:58;;;;;;;6.47;4.60;;;;;;;9.89;64.46;99832.66;5079583;28;41174;-77
2023/05/03 02:51:28;;;;;;;5.50;4.43;;;;;;;9.93;64.49;99828.91;5079188;28;38940;-78
2023/05/03 02:53:56;;;;;;;8.17;4.77;;;;;;;9.96;64.35;99834.09;5079112;28;40697;-78
2023/05/03 02:56:25;;;;;;;6.13;4.30;;;;;;;9.87;63.98;99813.34;5095781;28;43074;-78
2023/05/03 02:58:53;;;;;;;5.83;4.33;;;;;;;9.98;64.01;99833.09;5096322;28;43327;-78
2023/05/03 03:01:22;;;;;;;7.77;4.83;;;;;;;9.91;63.16;99839.56;5095814;28;40203;-77
2023/05/03 03:03:50;;;;;;;5.50;4.40;;;;;;;9.91;63.37;99830.78;5078979;28;40835;-78
2023/05/03 03:06:18;;;;;;;6.27;4.47;;;;;;;9.82;63.07;99820.59;5078569;28;43168;-77
2023/05/03 03:08:47;;;;;;;5.37;3.97;;;;;;;9.94;62.88;99835.94;5095743;28;42417;-78
2023/05/03 03:11:15;;;;;;;4.37;3.97;;;;;;;9.80;63.05;99818.03;5095680;28;40937;-77
2023/05/03 03:13:43;;;;;;;5.33;4.80;;;;;;;9.91;62.78;99825.47;5079057;28;42191;-76
2023/05/03 03:16:10;;;;;;;6.70;4.50;;;;;;;9.90;62.48;99831.69;5078400;28;42619;-76
2023/05/03 03:18:38;;;;;;;5.70;4.57;;;;;;;9.86;61.80;99838.06;5078668;28;41549;-76
2023/05/03 03:21:06;;;;;;;6.03;4.07;;;;;;;9.83;62.28;99838.19;5095860;28;39894;-76
2023/05/03 03:23:35;;;;;;;7.10;4.93;;;;;;;9.81;61.41;99851.50;5096108;28;41726;-77
2023/05/03 03:26:05;;;;;;;6.07;4.20;;;;;;;9.78;61.51;99853.41;5078279;28;41893;-79
2023/05/03 03:28:33;;;;;;;6.47;4.03;;;;;;;9.73;61.33;99854.47;5095782;28;42361;-77
2023/05/03 03:31:05;;;;;;;5.40;4.37;;;;;;;9.58;61.18;99839.25;5078708;28;39139;-80
2023/05/03 03:33:32;;;;;;;9.40;4.60;;;;;;;9.67;61.89;99848.56;5078527;28;41904;-80
2023/05/03 03:36:09;;;;;;;9.23;4.93;;;;;;;9.67;61.30;99849.44;5078931;28;41904;-77
2023/05/03 03:38:40;;;;;;;7.10;4.33;;;;;;;9.58;61.36;99841.91;5092749;28;42600;-79
2023/05/03 03:41:12;;;;;;;5.77;4.60;;;;;;;9.61;61.43;99849.72;5078931;28;40253;-80
2023/05/03 03:43:40;;;;;;;5.37;4.43;;;;;;;9.44;60.85;99857.47;5095312;28;42690;-77
2023/05/03 03:46:13;;;;;;;5.63;4.60;;;;;;;9.36;61.40;99849.03;5078212;28;42939;-78
2023/05/03 03:48:42;;;;;;;9.20;4.90;;;;;;;9.34;61.18;99846.44;5095502;28;42317;-79
2023/05/03 03:51:10;;;;;;;9.50;5.20;;;;;;;9.15;61.58;99834.06;5095206;28;40011;-79
2023/05/03 03:53:44;;;;;;;7.80;4.60;;;;;;;9.24;61.23;99852.19;5078301;28;40665;-79
2023/05/03 03:56:14;;;;;;;6.63;4.03;;;;;;;9.21;61.93;99852.28;5095071;28;42896;-79
2023/05/03 03:58:43;;;;;;;5.60;4.67;;;;;;;9.15;61.62;99856.03;5077315;28;42179;-78
2023/05/03 04:01:12;;;;;;;8.63;4.73;;;;;;;9.08;61.39;99859.00;5094725;28;40315;-78
2023/05/03 04:03:40;;;;;;;7.47;4.90;;;;;;;9.02;61.78;99853.97;5078135;28;40182;-79
2023/05/03 04:06:08;;;;;;;5.87;4.47;;;;;;;8.91;61.85;99862.31;5077745;28;41758;-79
2023/05/03 04:08:36;;;;;;;6.33;4.70;;;;;;;8.71;62.00;99841.97;5095064;28;43041;-78
2023/05/03 04:11:09;;;;;;;5.67;4.37;;;;;;;8.71;62.24;99860.47;5077892;28;39907;-80
2023/05/03 04:13:40;;;;;;;7.93;4.73;;;;;;;8.68;61.99;99859.72;5091953;28;41835;-79
2023/05/03 04:16:08;;;;;;;7.07;4.80;;;;;;;8.56;62.39;99853.13;5077427;28;41780;-79
2023/05/03 04:18:36;;;;;;;6.77;5.10;;;;;;;8.53;62.63;99866.47;5094708;28;42335;-80
2023/05/03 04:21:05;;;;;;;7.70;5.37;;;;;;;8.41;62.63;99867.75;5077992;28;39065;-78
2023/05/03 04:23:33;;;;;;;5.70;4.23;;;;;;;8.33;62.68;99855.78;5095046;28;41767;-78
2023/05/03 04:26:02;;;;;;;4.87;4.23;;;;;;;8.35;62.87;99867.13;5094868;28;43511;-79
2023/05/03 04:28:30;;;;;;;7.47;4.73;;;;;;;8.36;63.13;99871.50;5094671;28;41535;-80
2023/05/03 04:30:59;;;;;;;5.57;4.60;;;;;;;8.33;62.84;99874.25;5094747;28;40711;-78
2023/05/03 04:33:29;;;;;;;4.80;4.40;;;;;;;8.30;63.34;99886.59;5077613;28;40624;-78
2023/05/03 04:36:03;;;;;;;6.90;4.33;;;;;;;8.29;63.02;99887.50;5092323;28;42821;-80
2023/05/03 04:38:32;;;;;;;8.90;4.87;;;;;;;8.28;62.68;99888.44;5077355;28;42775;-80
2023/05/03 04:41:02;;;;;;;5.17;4.60;;;;;;;8.18;62.75;99865.09;5077707;28;40455;-79
2023/05/03 04:43:31;;;;;;;6.10;4.53;;;;;;;8.30;62.98;99893.66;5077552;28;42312;-78
2023/05/03 04:46:02;;;;;;;4.93;4.43;;;;;;;8.32;62.82;99893.63;5077298;28;43014;-78
2023/05/03 04:48:30;;;;;;;5.67;4.77;;;;;;;8.33;62.80;99890.94;5077146;28;41240;-80
2023/05/03 04:50:58;;;;;;;6.90;4.40;;;;;;;8.35;62.59;99888.25;5094126;28;40083;-79
2023/05/03 04:53:26;;;;;;;8.70;5.17;;;;;;;8.37;62.84;99889.06;5094072;28;42719;-79
2023/05/03 04:56:07;;;;;;;9.03;4.57;;;;;;;8.40;62.61;99892.47;5092287;28;43887;-79
2023/05/03 04:58:38;;;;;;;7.50;4.77;;;;;;;8.49;62.37;99897.38;5090805;28;43041;-79
2023/05/03 05:01:08;;;;;;;7.73;5.00;;;;;;;8.57;62.33;99905.00;5077169;28;40228;-78
2023/05/03 05:03:36;;;;;;;6.83;4.83;;;;;;;8.57;61.80;99897.09;5077325;28;40928;-78
2023/05/03 05:06:11;;;;;;;6.57;4.33;;;;;;;8.54;62.18;99887.50;5076998;28;41748;-78
2023/05/03 05:08:41;;;;;;;5.80;4.53;;;;;;;8.72;61.97;99903.56;5076767;28;42693;-78
2023/05/03 05:11:13;;;;;;;8.37;4.90;;;;;;;8.78;61.75;99909.47;5077175;28;39017;-79
2023/05/03 05:13:41;;;;;;;7.63;4.70;;;;;;;8.83;61.21;99914.59;5093774;28;42694;-78
2023/05/03 05:16:11;;;;;;;7.03;4.73;;;;;;;8.92;61.56;99922.16;5093424;28;43167;-78
2023/05/03 05:18:43;;;;;;;6.00;4.27;;;;;;;9.02;61.39;99920.03;5077027;28;42609;-79
2023/05/03 05:21:13;;;;;;;7.30;4.27;;;;;;;9.14;60.85;99916.91;5093709;28;39489;-79
2023/05/03 05:23:41;;;;;;;7.20;4.07;;;;;;;9.25;60.59;99919.97;5093592;28;42197;-79
2023/05/03 05:26:09;;;;;;;5.43;4.37;;;;;;;9.34;60.08;99928.41;5076541;28;41463;-78
2023/05/03 05:28:38;;;;;;;5.47;4.00;;;;;;;9.48;59.91;99930.47;5093739;28;42124;-78
2023/05/03 05:31:06;;;;;;;6.10;4.30;;;;;;;9.63;59.71;99932.50;5093751;28;40633;-77
2023/05/03 05:33:35;;;;;;;7.67;5.03;;;;;;;9.75;59.60;99938.19;5076522;28;40725;-78
2023/05/03 05:36:05;;;;;;;6.10;4.37;;;;;;;9.91;58.53;99947.19;5093641;28;41860;-76
2023/05/03 05:38:35;;;;;;;5.63;4.30;;;;;;;10.04;58.66;99940.44;5093541;28;42210;-78
2023/05/03 05:41:03;;;;;;;5.87;4.27;;;;;;;10.28;57.95;99952.66;5093195;28;40350;-80
2023/05/03 05:43:32;;;;;;;5.40;4.17;;;;;;;10.44;58.00;99947.56;5076636;28;40578;-79
2023/05/03 05:46:00;;;;;;;6.33;5.00;;;;;;;10.57;57.30;99950.50;5076594;28;41893;-79
2023/05/03 05:48:28;;;;;;;9.00;4.30;;;;;;;10.70;57.47;99943.72;5076341;28;41520;-79
2023/05/03 05:50:57;;;;;;;4.53;4.00;;;;;;;10.89;57.26;99949.03;5093635;28;40239;-81
2023/05/03 05:53:25;;;;;;;4.90;4.03;;;;;;;11.09;56.87;99957.78;5077182;28;40659;-78
2023/05/03 05:56:00;;;;;;;7.23;4.50;;;;;;;11.33;56.11;99944.31;5076957;28;42094;-78
2023/05/03 05:58:29;;;;;;;6.10;4.77;;;;;;;11.55;55.25;99950.28;5076840;28;40838;-78
2023/05/03 06:01:00;;;;;;;6.53;3.87;;;;;;;11.84;55.19;99952.38;5093421;28;40085;-80
2023/05/03 06:03:30;;;;;;;5.43;4.70;;;;;;;11.98;54.35;99964.09;5076683;28;41815;-80
2023/05/03 06:06:01;;;;;;;4.80;4.23;;;;;;;12.15;54.30;99950.81;5076238;28;42992;-79
2023/05/03 06:08:28;;;;;;;6.90;4.27;;;;;;;12.15;52.97;99953.47;5093373;28;42379;-80
2023/05/03 06:10:56;;;;;;;7.70;4.10;;;;;;;12.11;52.32;99951.94;5073263;28;38796;-81
2023/05/03 06:13:26;;;;;;;6.00;4.40;;;;;;;12.27;53.14;99966.13;5051596;28;42437;-80
2023/05/03 06:15:54;;;;;;;5.80;4.13;;;;;;;12.34;53.26;99945.41;5066324;28;42568;-78
2023/05/03 06:18:22;;;;;;;8.20;4.63;;;;;;;12.63;52.25;99970.44;5069654;28;43179;-82
2023/05/03 06:20:50;;;;;;;5.20;4.40;;;;;;;12.75;51.80;99975.09;5071508;28;39068;-83
2023/05/03 06:23:20;;;;;;;6.13;4.83;;;;;;;12.80;51.79;99970.41;5074969;28;42486;-78
2023/05/03 06:25:48;;;;;;;5.73;3.90;;;;;;;13.04;51.85;99971.72;5075369;28;42801;-80
2023/05/03 06:28:17;;;;;;;8.37;4.50;;;;;;;13.17;50.99;99983.44;5059673;28;41274;-81
2023/05/03 06:30:49;;;;;;;6.30;4.07;;;;;;;13.40;50.58;99981.31;5059172;28;40134;-80
2023/05/03 06:33:17;;;;;;;5.00;3.83;;;;;;;13.70;50.42;99986.72;5072893;28;42757;-76
2023/05/03 06:35:48;;;;;;;7.13;4.40;;;;;;;13.92;49.45;99990.69;5058060;28;42822;-76
2023/05/03 06:38:17;;;;;;;4.97;4.30;;;;;;;13.97;49.21;99971.81;5075247;28;42459;-78
2023/05/03 06:40:47;;;;;;;5.60;4.03;;;;;;;14.34;50.01;99989.13;5058565;28;40841;-79
2023/05/03 06:43:14;;;;;;;4.30;3.90;;;;;;;14.65;49.60;99985.47;5059442;28;41121;-80
2023/05/03 06:45:54;;;;;;;4.20;3.70;;;;;;;14.63;48.02;100001.56;5058472;28;41827;-79
2023/05/03 06:48:22;;;;;;;7.40;4.10;;;;;;;14.57;47.38;99999.28;5059074;28;41508;-77
2023/05/03 06:50:49;;;;;;;5.73;3.90;;;;;;;14.46;48.03;99975.09;5075058;28;40939;-78
2023/05/03 06:53:17;;;;;;;6.63;4.20;;;;;;;14.64;48.63;99984.63;5075844;28;40640;-78
2023/05/03 06:55:46;;;;;;;5.60;3.70;;;;;;;14.54;47.43;99988.81;5058337;28;43077;-82
2023/05/03 06:58:15;;;;;;;4.53;3.93;;;;;;;14.51;47.96;99991.66;5075318;28;41352;-79
2023/05/03 07:00:43;;;;;;;6.27;3.67;;;;;;;14.53;48.54;99975.56;5058077;28;38966;-78
2023/05/03 07:03:10;;;;;;;4.40;3.87;;;;;;;14.81;48.69;99972.06;5058246;28;40879;-80
2023/05/03 07:05:38;;;;;;;5.50;4.27;;;;;;;15.08;47.58;99983.69;5057930;28;42115;-78
2023/05/03 07:08:06;;;;;;;7.10;3.77;;;;;;;15.28;47.57;99982.41;5093914;28;43224;-82
2023/05/03 07:10:34;;;;;;;3.67;3.37;;;;;;;15.33;47.15;99983.00;5092720;28;39941;-81
2023/05/03 07:13:03;;;;;;;5.47;3.77;;;;;;;15.33;46.86;99973.13;5058495;28;41220;-80
2023/05/03 07:15:31;;;;;;;10.77;4.00;;;;;;;15.14;46.23;99961.94;5057069;28;42936;-82
2023/05/03 07:17:59;;;;;;;8.47;4.00;;;;;;;15.31;47.83;99940.38;5075564;28;40888;-81
2023/05/03 07:20:27;;;;;;;5.70;3.93;;;;;;;15.66;48.50;99953.25;5103653;28;41193;-79
2023/05/03 07:22:56;;;;;;;4.80;3.70;;;;;;;15.84;47.52;99941.34;5078729;28;41093;-79
2023/05/03 07:25:23;;;;;;;5.80;3.50;;;;;;;16.14;45.74;99949.97;5094762;28;42787;-80
2023/05/03 07:27:51;;;;;;;3.50;3.17;;;;;;;16.61;45.57;99961.88;5078067;28;41306;-81
2023/05/03 07:30:21;;;;;;;4.73;3.50;;;;;;;16.92;45.57;99952.59;5095144;28;40921;-79
2023/05/03 07:32:49;;;;;;;5.97;4.53;;;;;;;16.64;44.20;99969.72;5094202;28;41723;-79
2023/05/03 07:35:18;;;;;;;4.00;3.60;;;;;;;16.58;44.40;99962.09;5078177;28;41689;-79
2023/05/03 07:37:45;;;;;;;4.00;3.67;;;;;;;16.43;43.94;99950.66;5113585;28;43227;-77
2023/05/03 07:40:13;;;;;;;5.67;3.70;;;;;;;16.59;44.88;99961.13;5094574;28;40811;-77
2023/05/03 07:42:41;;;;;;;6.50;3.60;;;;;;;16.58;43.96;99964.75;5077782;28;41860;-76
2023/05/03 07:45:10;;;;;;;6.50;3.63;;;;;;;16.92;46.54;99941.03;5094233;28;41780;-80
2023/05/03 07:47:39;;;;;;;6.27;3.37;;;;;;;17.39;44.09;99945.63;5078104;28;42678;-83
2023/05/03 07:50:08;;;;;;;4.23;3.27;;;;;;;18.00;44.44;99952.66;5077845;28;38823;-83
2023/05/03 07:52:37;;;;;;;6.20;3.70;;;;;;;18.07;43.32;99961.94;5113206;28;41867;-79
2023/05/03 07:55:05;;;;;;;5.23;3.60;;;;;;;18.17;44.19;99948.72;5094634;28;41689;-80
2023/05/03 07:57:33;;;;;;;4.00;3.60;;;;;;;18.44;44.01;99957.31;5113455;28;42295;-79
2023/05/03 08:00:01;;;;;;;4.23;3.17;;;;;;;18.61;41.49;99964.09;5094892;28;39848;-85
2023/05/03 08:02:28;;;;;;;3.57;3.27;;;;;;;18.54;41.51;99946.72;5094908;28;41810;-84
2023/05/03 08:04:57;;;;;;;4.03;3.67;;;;;;;18.92;41.94;99973.25;5077732;28;42368;-79
2023/05/03 08:07:24;;;;;;;4.67;3.97;;;;;;;19.03;40.41;99959.84;5095014;28;42201;-80
2023/05/03 08:09:52;;;;;;;4.40;3.60;;;;;;;19.53;40.07;99979.13;5094838;28;40191;-81
2023/05/03 08:12:20;;;;;;;6.53;3.40;;;;;;;19.82;41.63;99926.47;5077738;28;40886;-82
2023/05/03 08:14:48;;;;;;;5.13;3.20;;;;;;;20.41;41.13;99974.38;5094271;28;41925;-84
2023/05/03 08:17:15;;;;;;;4.23;3.20;;;;;;;20.58;40.04;99981.88;5077518;28;42228;-82
2023/05/03 08:19:42;;;;;;;3.83;3.47;;;;;;;20.40;37.95;99992.38;5078072;28;39301;-84
2023/05/03 08:22:12;;;;;;;4.67;3.37;;;;;;;20.50;41.01;99965.56;5113335;28;41758;-82
2023/05/03 08:24:41;;;;;;;14.40;4.60;;;;;;;20.90;38.44;99984.47;5112200;28;42556;-80
2023/05/03 08:27:09;;;;;;;8.57;4.27;;;;;;;21.54;37.14;99988.72;5112914;28;42056;-82
2023/05/03 08:29:37;;;;;;;4.70;3.47;;;;;;;22.65;36.09;99997.31;5090453;28;40252;-80
2023/05/03 08:32:06;;;;;;;4.73;3.80;;;;;;;23.58;35.00;100006.28;5094598;28;41671;-81
2023/05/03 08:34:33;;;;;;;6.97;4.10;;;;;;;23.90;31.26;100024.72;5093746;28;43485;-77
2023/05/03 08:37:03;;;;;;;5.30;3.63;;;;;;;24.66;32.16;99994.50;5077336;28;42554;-84
2023/05/03 08:39:32;;;;;;;4.83;3.30;;;;;;;25.95;30.42;100020.63;5094102;28;40457;-79
2023/05/03 08:42:00;;;;;;;5.10;3.50;;;;;;;26.77;30.04;100023.25;5094216;28;40756;-85
2023/05/03 08:44:29;;;;;;;7.03;4.43;;;;;;;27.59;28.29;100029.38;5111469;28;43493;-84
2023/05/03 08:46:59;;;;;;;4.93;3.10;;;;;;;28.56;26.79;100028.81;5077374;28;41289;-82
2023/05/03 08:49:28;;;;;;;4.20;3.80;;;;;;;29.19;26.10;100032.16;5093883;28;39938;-83
2023/05/03 08:51:57;;;;;;;3.53;3.23;;;;;;;29.44;24.58;100039.06;5094050;28;41724;-81
2023/05/03 08:54:25;;;;;;;5.30;4.07;;;;;;;29.30;23.49;100045.38;5076257;28;42865;-78
2023/05/03 08:56:54;;;;;;;5.00;3.77;;;;;;;29.12;25.17;100039.41;5077296;28;41191;-77
2023/05/03 08:59:23;;;;;;;5.87;3.70;;;;;;;28.82;25.55;100023.00;5093751;28;38878;-81
2023/05/03 09:01:51;;;;;;;6.17;3.80;;;;;;;28.12;25.31;100028.59;5077497;28;40601;-80
2023/05/03 09:04:18;;;;;;;6.30;4.03;;;;;;;27.49;25.93;100035.03;5093953;28;42742;-84
2023/05/03 09:06:46;;;;;;;5.77;3.73;;;;;;;27.60;25.63;100025.66;5093815;28;41614;-82
2023/05/03 09:09:14;;;;;;;5.47;4.00;;;;;;;27.88;25.62;99996.06;5093678;28;41095;-86
2023/05/03 09:11:42;;;;;;;3.93;3.57;;;;;;;28.21;25.31;100024.81;5093886;28;40940;-89
2023/05/03 09:14:13;;;;;;;8.77;3.67;;;;;;;28.24;26.32;100019.03;5111692;28;42667;-79
2023/05/03 09:16:43;;;;;;;6.27;4.20;;;;;;;28.95;25.32;100028.66;5075993;28;41300;-79
2023/05/03 09:19:11;;;;;;;3.83;3.43;;;;;;;30.18;24.57;100026.16;5093243;28;40026;-78
2023/05/03 09:21:41;;;;;;;4.15;3.63;;;;;;;31.46;22.29;100042.44;5093097;28;41827;-78
2023/05/03 09:24:14;;;;;;;3.75;3.35;;;;;;;32.07;22.03;100028.81;5077403;28;20228;-81
2023/05/03 09:26:42;;;;;;;3.50;3.20;;;;;;;32.67;21.45;100044.38;5110271;28;43061;-81
2023/05/03 09:29:26;;;;;;;4.22;3.60;;;;;;;32.71;22.29;100031.06;5093313;28;39086;-80
2023/05/03 09:31:59;;;;;;;4.75;4.07;;;;;;;32.47;22.23;100016.06;5076242;28;40680;-80
2023/05/03 09:34:27;;;;;;;6.72;3.78;;;;;;;32.89;22.25;100034.03;5089641;28;42766;-80
2023/05/03 09:36:55;;;;;;;6.13;4.63;;;;;;;32.57;22.33;100026.63;5076121;28;43763;-79
2023/05/03 09:39:23;;;;;;;4.23;3.47;;;;;;;32.05;22.61;99993.41;5092530;28;39531;-78
2023/05/03 09:41:51;;;;;;;5.67;3.87;;;;;;;32.58;22.34;100014.59;5092890;28;40736;-79
2023/05/03 09:44:20;;;;;;;4.00;3.60;;;;;;;32.32;21.96;100020.91;5092514;28;42888;-77
2023/05/03 09:47:04;;;;;;;5.37;4.87;;;;;;;32.27;21.97;100007.00;5092903;28;42256;-81
2023/05/03 09:49:32;;;;;;;5.30;3.63;;;;;;;33.16;20.78;100024.72;5107699;28;40624;-81
2023/05/03 09:52:01;;;;;;;5.43;4.13;;;;;;;33.39;20.45;100024.28;5090867;28;42001;-79
2023/05/03 09:54:31;;;;;;;6.03;4.50;;;;;;;33.51;19.53;100032.69;5057809;28;41588;-81
2023/05/03 09:56:59;;;;;;;6.20;4.47;;;;;;;32.67;21.57;99984.00;5091554;28;41261;-81
2023/05/03 09:59:28;;;;;;;4.80;3.77;;;;;;;31.81;23.03;99993.97;5092280;28;41724;-79
2023/05/03 10:01:58;;;;;;;4.63;3.90;;;;;;;31.25;24.24;99996.00;5092981;28;42529;-80
2023/05/03 10:04:28;;;;;;;5.00;4.40;;;;;;;31.44;22.50;100008.94;5092182;28;42839;-80
2023/05/03 10:06:59;;;;;;;5.83;4.80;;;;;;;31.39;21.71;100019.66;5092856;28;43183;-78
2023/05/03 10:09:32;;;;;;;4.57;4.17;;;;;;;30.71;23.93;99999.34;5111329;28;39628;-81
2023/05/03 10:12:02;;;;;;;5.63;4.00;;;;;;;30.09;23.29;99967.22;5076293;28;40833;-83
2023/05/03 10:14:32;;;;;;;4.77;4.27;;;;;;;29.70;23.67;99994.03;5075585;28;42810;-80
2023/05/03 10:17:02;;;;;;;5.10;4.00;;;;;;;29.46;23.56;99990.59;5092504;28;44856;-78
2023/05/03 10:19:35;;;;;;;4.93;4.43;;;;;;;29.88;24.62;99980.84;5075512;28;38972;-82
2023/05/03 10:22:05;;;;;;;6.00;4.03;;;;;;;30.02;23.32;99987.31;5092265;28;40782;-79
2023/05/03 10:24:33;;;;;;;6.20;4.50;;;;;;;29.39;24.13;99964.28;5075493;28;42953;-81
2023/05/03 10:27:01;;;;;;;6.17;4.10;;;;;;;28.93;25.51;99959.81;5111237;28;43253;-84
2023/05/03 10:29:48;;;;;;;4.73;4.23;;;;;;;29.36;25.09;99949.09;5092727;28;39206;-79
2023/05/03 10:32:29;;;;;;;9.90;5.27;;;;;;;30.12;22.83;99977.75;5093089;28;41746;-81
2023/05/03 10:34:59;;;;;;;5.10;4.20;;;;;;;30.49;22.91;99975.78;5092203;28;41918;-79
2023/05/03 10:37:28;;;;;;;4.63;4.10;;;;;;;30.74;22.68;99981.72;5092341;28;43061;-77
2023/05/03 10:39:56;;;;;;;4.60;4.20;;;;;;;30.25;23.32;99966.97;5075543;28;38896;-80
2023/05/03 10:42:26;;;;;;;4.23;3.70;;;;;;;29.85;25.02;99926.59;5092524;28;42050;-79
2023/05/03 10:44:56;;;;;;;4.90;4.50;;;;;;;29.76;23.43;99966.84;5110136;28;43335;-79
2023/05/03 10:47:25;;;;;;;7.40;3.77;;;;;;;29.73;24.53;99958.16;5074649;28;42315;-79
2023/05/03 10:50:24;;;;;;;6.07;4.20;;;;;;;30.14;24.60;99955.72;5074846;28;41552;-79
2023/05/03 10:52:52;;;;;;;4.77;3.90;;;;;;;30.62;23.91;99956.81;5089235;28;42843;-78
2023/05/03 10:55:23;;;;;;;5.77;3.90;;;;;;;31.27;23.51;99961.06;5091353;28;42788;-77
2023/05/03 10:57:54;;;;;;;4.53;3.73;;;;;;;31.36;23.45;99951.63;5091905;28;42174;-76
2023/05/03 11:00:30;;;;;;;8.03;4.20;;;;;;;31.25;23.88;99941.25;5074626;28;39314;-78
2023/05/03 11:03:11;;;;;;;4.17;3.77;;;;;;;31.00;24.87;99911.63;5107373;28;42731;-78
2023/05/03 11:05:39;;;;;;;4.23;3.17;;;;;;;31.25;24.61;99924.81;5091098;28;41767;-77
2023/05/03 11:08:16;;;;;;;4.57;3.20;;;;;;;32.77;22.76;99942.44;5094487;28;42237;-78
2023/05/03 11:10:45;;;;;;;4.57;3.97;;;;;;;34.52;20.77;99959.44;5094861;28;40214;-78
2023/05/03 11:13:13;;;;;;;4.83;3.73;;;;;;;35.87;18.57;99957.59;5078132;28;40860;-78
2023/05/03 11:15:43;;;;;;;4.65;4.25;;;;;;;36.57;17.54;99979.06;5094287;28;41912;-78
2023/05/03 11:18:11;;;;;;;3.80;3.50;;;;;;;36.85;17.69;99970.09;5078671;28;41636;-80
2023/05/03 11:20:39;;;;;;;4.20;3.38;;;;;;;37.19;17.01;99961.00;5094959;28;40362;-78
2023/05/03 11:23:07;;;;;;;6.22;3.90;;;;;;;36.77;17.75;99962.16;5113848;28;42033;-79
2023/05/03 11:25:35;;;;;;;4.25;3.83;;;;;;;35.73;18.89;99949.72;5113006;28;42635;-79
2023/05/03 11:28:04;;;;;;;3.93;3.53;;;;;;;35.68;19.28;99931.13;5095056;28;41265;-78
2023/05/03 11:30:34;;;;;;;5.83;4.33;;;;;;;35.38;17.96;99957.78;5077345;28;38929;-78
2023/05/03 11:33:04;;;;;;;3.67;3.20;;;;;;;34.33;19.88;99926.59;5095174;28;42412;-78
2023/05/03 11:35:31;;;;;;;6.63;3.70;;;;;;;33.70;19.50;99921.88;5112529;28;43439;-78
2023/05/03 11:37:59;;;;;;;6.80;4.20;;;;;;;32.88;21.00;99917.13;5094821;28;43124;-77
2023/05/03 11:40:27;;;;;;;4.70;3.93;;;;;;;32.53;21.38;99918.38;5112740;28;40856;-77
2023/05/03 11:42:56;;;;;;;5.83;3.73;;;;;;;32.71;22.06;99893.91;5095553;28;40554;-80
2023/05/03 11:45:28;;;;;;;5.23;4.07;;;;;;;32.86;19.69;99923.88;5077407;28;41665;-80
2023/05/03 11:47:56;;;;;;;7.07;4.00;;;;;;;32.41;21.55;99899.81;5092149;28;42910;-80